Time;durP1;ratioP1;P1;durP2;ratioP2;P2;SDS_P1;SDS_P2;PMS_P1;PMS_P2;Temp;Humidity;BMP_temperature;BMP_pressure;BME280_temperature;BME280_humidity;BME280_pressure;Samples;Min_cycle;Max_cycle;Signal;HPM_P1;HPM_P2
2023/04/21 00:00:48;;;;;;;18.40;12.35;;;;;;;9.52;74.47;98006.25;5093993;28;20035;-48
2023/04/21 00:03:14;;;;;;;13.73;11.85;;;;;;;9.44;74.66;98007.28;5093926;28;20410;-48
2023/04/21 00:05:41;;;;;;;19.52;17.45;;;;;;;9.44;74.82;98007.28;5095089;28;20506;-48
2023/04/21 00:08:10;;;;;;;41.90;26.60;;;;;;;9.47;75.09;97999.00;5095171;28;20020;-48
2023/04/21 00:10:36;;;;;;;27.80;23.73;;;;;;;9.51;74.98;97997.56;5093773;28;20027;-48
2023/04/21 00:13:01;;;;;;;16.15;12.77;;;;;;;9.50;75.01;97993.34;5093883;28;20034;-48
2023/04/21 00:15:27;;;;;;;18.30;11.48;;;;;;;9.59;75.30;97997.31;5094967;28;20024;-48
2023/04/21 00:17:53;;;;;;;18.05;9.90;;;;;;;9.75;75.05;97988.13;5093664;28;20386;-48
2023/04/21 00:20:19;;;;;;;20.67;11.32;;;;;;;9.92;74.94;97991.06;5110589;28;20024;-48
2023/04/21 00:22:44;;;;;;;14.80;11.02;;;;;;;10.00;74.46;97987.38;5094887;28;20520;-48
2023/04/21 00:25:10;;;;;;;13.50;11.40;;;;;;;10.08;74.33;97988.91;5093445;28;20059;-48
2023/04/21 00:27:36;;;;;;;16.67;10.38;;;;;;;10.20;73.88;97980.16;5093500;28;20481;-48
2023/04/21 00:30:01;;;;;;;15.88;10.60;;;;;;;10.32;73.79;97980.28;5094419;28;20077;-48
2023/04/21 00:32:27;;;;;;;14.00;10.20;;;;;;;10.47;73.13;97976.50;5094480;28;20062;-48
2023/04/21 00:34:52;;;;;;;14.30;10.73;;;;;;;10.58;72.46;97978.41;5094613;28;20024;-48
2023/04/21 00:37:18;;;;;;;17.00;11.57;;;;;;;10.61;72.38;97966.69;5093262;28;20035;-48
2023/04/21 00:39:44;;;;;;;14.20;10.27;;;;;;;10.66;72.50;97969.44;5093217;28;20119;-48
2023/04/21 00:42:10;;;;;;;15.50;11.15;;;;;;;10.73;72.31;97970.19;5093112;28;20070;-48
2023/04/21 00:44:35;;;;;;;16.75;10.32;;;;;;;10.82;71.60;97958.34;5093098;28;20387;-48
2023/04/21 00:47:01;;;;;;;19.33;10.93;;;;;;;10.88;71.33;97957.47;5093055;28;20031;-48
2023/04/21 00:49:27;;;;;;;23.40;12.52;;;;;;;10.89;70.91;97960.94;5094329;28;20040;-48
2023/04/21 00:51:54;;;;;;;12.60;11.00;;;;;;;10.83;71.01;97956.56;5076209;28;20456;-48
2023/04/21 00:54:23;;;;;;;13.52;11.25;;;;;;;10.75;70.96;97961.06;5092898;28;20549;-48
2023/04/21 00:56:48;;;;;;;24.40;12.27;;;;;;;10.70;71.12;97953.03;5076435;28;20024;-49
2023/04/21 00:59:14;;;;;;;14.32;11.18;;;;;;;10.68;71.13;97960.31;5092842;28;20039;-48
2023/04/21 01:01:40;;;;;;;19.02;11.55;;;;;;;10.61;70.82;97962.22;5094039;28;20405;-48
2023/04/21 01:04:06;;;;;;;14.05;11.52;;;;;;;10.49;70.89;97954.28;5092631;28;20031;-48
2023/04/21 01:06:35;;;;;;;13.00;11.77;;;;;;;10.45;71.42;97955.72;5092667;28;20516;-48
2023/04/21 01:09:03;;;;;;;18.70;12.75;;;;;;;10.42;71.33;97953.53;5093967;28;20041;-48
2023/04/21 01:11:30;;;;;;;14.48;12.10;;;;;;;10.35;71.41;97948.38;5093838;28;20040;-48
2023/04/21 01:13:56;;;;;;;17.30;11.85;;;;;;;10.38;71.53;97952.38;5093893;28;20486;-48
2023/04/21 01:16:22;;;;;;;13.73;11.63;;;;;;;10.43;71.72;97952.53;5092451;28;20077;-48
2023/04/21 01:18:49;;;;;;;16.83;12.52;;;;;;;10.35;71.41;97947.56;5092512;28;20504;-48
2023/04/21 01:21:16;;;;;;;13.90;11.60;;;;;;;10.31;71.74;97951.66;5092378;28;20036;-48
2023/04/21 01:23:42;;;;;;;18.05;11.52;;;;;;;10.37;72.17;97948.94;5092386;28;20027;-48
2023/04/21 01:26:08;;;;;;;14.68;12.88;;;;;;;10.43;72.17;97949.91;5092247;28;20110;-48
2023/04/21 01:28:35;;;;;;;17.05;11.00;;;;;;;10.52;72.10;97948.63;5092304;28;20136;-48
2023/04/21 01:31:01;;;;;;;16.48;12.02;;;;;;;10.63;71.59;97939.19;5092256;28;20030;-48
2023/04/21 01:33:27;;;;;;;13.65;12.35;;;;;;;10.67;71.34;97939.56;5092077;28;20048;-48
2023/04/21 01:35:54;;;;;;;15.75;12.73;;;;;;;10.61;71.06;97945.69;5092139;28;20023;-48
2023/04/21 01:38:20;;;;;;;14.75;11.38;;;;;;;10.72;71.78;97948.38;5093407;28;20038;-48
2023/04/21 01:40:49;;;;;;;14.45;11.20;;;;;;;10.93;71.17;97943.72;5074567;28;20024;-48
2023/04/21 01:43:17;;;;;;;13.57;10.60;;;;;;;10.97;70.43;97945.66;5091950;28;20030;-48
2023/04/21 01:45:43;;;;;;;13.35;10.45;;;;;;;11.06;70.19;97946.16;5093153;28;20097;-48
2023/04/21 01:48:08;;;;;;;19.23;11.95;;;;;;;11.07;69.83;97952.22;5075134;28;20489;-48
2023/04/21 01:50:34;;;;;;;14.10;10.88;;;;;;;11.10;69.98;97952.56;5091846;28;20028;-48
2023/04/21 01:53:00;;;;;;;13.13;11.18;;;;;;;11.09;69.35;97953.59;5093377;28;20081;-48
2023/04/21 01:55:26;;;;;;;12.15;9.85;;;;;;;11.05;69.80;97956.91;5091789;28;20048;-48
2023/04/21 01:57:51;;;;;;;18.10;11.15;;;;;;;11.11;70.30;97948.94;5093029;28;20437;-48
2023/04/21 02:00:17;;;;;;;14.15;11.10;;;;;;;11.13;69.37;97949.50;5093004;28;20042;-48
2023/04/21 02:02:43;;;;;;;12.80;10.68;;;;;;;11.19;68.95;97946.00;5091592;28;20040;-48
2023/04/21 02:05:09;;;;;;;16.90;10.77;;;;;;;11.20;68.61;97946.78;5092783;28;20541;-48
2023/04/21 02:07:34;;;;;;;21.38;11.30;;;;;;;11.19;68.58;97938.13;5091578;28;20058;-48
2023/04/21 02:10:00;;;;;;;19.00;10.48;;;;;;;11.20;68.50;97944.16;5091474;28;20027;-48
2023/04/21 02:12:26;;;;;;;17.15;9.75;;;;;;;11.29;68.52;97936.75;5091433;28;20379;-48
2023/04/21 02:14:52;;;;;;;10.77;9.60;;;;;;;11.39;68.10;97932.59;5108389;28;20379;-48
2023/04/21 02:17:17;;;;;;;9.70;8.80;;;;;;;11.39;67.51;97931.81;5074474;28;20060;-48
2023/04/21 02:19:43;;;;;;;14.98;10.27;;;;;;;11.38;68.02;97936.22;5108324;28;20039;-48
2023/04/21 02:22:11;;;;;;;12.38;9.70;;;;;;;11.36;67.79;97924.34;5091216;28;20118;-48
2023/04/21 02:24:37;;;;;;;18.50;10.85;;;;;;;11.38;67.32;97920.47;5108148;28;20039;-48
2023/04/21 02:27:03;;;;;;;15.18;10.75;;;;;;;11.38;67.01;97925.72;5091132;28;20061;-48
2023/04/21 02:29:29;;;;;;;19.52;10.07;;;;;;;11.25;66.92;97936.44;5091165;28;20028;-48
2023/04/21 02:31:54;;;;;;;14.20;9.82;;;;;;;11.17;67.42;97929.66;5092136;28;20052;-48
2023/04/21 02:34:20;;;;;;;15.55;10.40;;;;;;;11.07;68.34;97925.97;5108006;28;20027;-48
2023/04/21 02:36:46;;;;;;;11.88;10.68;;;;;;;10.98;68.18;97931.50;5091006;28;20047;-48
2023/04/21 02:39:12;;;;;;;16.98;10.75;;;;;;;10.96;68.36;97930.91;5091040;28;20506;-48
2023/04/21 02:41:38;;;;;;;12.70;9.02;;;;;;;11.02;68.15;97931.88;5092255;28;20039;-48
2023/04/21 02:44:04;;;;;;;10.32;9.32;;;;;;;10.90;68.36;97925.75;5090792;28;20027;-48
2023/04/21 02:46:30;;;;;;;16.50;12.00;;;;;;;10.89;68.55;97927.59;5107797;28;20035;-48
2023/04/21 02:48:56;;;;;;;15.43;9.70;;;;;;;10.93;68.28;97927.97;5092174;28;20030;-49
2023/04/21 02:51:21;;;;;;;13.30;9.98;;;;;;;10.92;68.41;97931.59;5107787;28;20035;-48
2023/04/21 02:53:47;;;;;;;13.38;10.70;;;;;;;10.87;68.59;97924.38;5107719;28;20024;-48
2023/04/21 02:56:13;;;;;;;12.15;10.15;;;;;;;10.98;68.42;97923.63;5090687;28;20453;-48
2023/04/21 02:58:38;;;;;;;16.02;9.60;;;;;;;11.09;67.90;97916.03;5090731;28;20024;-48
2023/04/21 03:01:04;;;;;;;11.43;9.63;;;;;;;11.15;67.73;97920.41;5090774;28;20028;-48
2023/04/21 03:03:31;;;;;;;12.35;9.50;;;;;;;11.13;67.41;97911.94;5091894;28;20490;-48
2023/04/21 03:06:02;;;;;;;14.75;9.68;;;;;;;11.18;67.37;97910.22;5090527;28;20028;-48
2023/04/21 03:08:29;;;;;;;18.35;9.20;;;;;;;11.22;67.76;97907.19;5091946;28;20024;-49
2023/04/21 03:10:54;;;;;;;20.02;10.90;;;;;;;11.28;67.29;97916.78;5107517;28;20553;-48
2023/04/21 03:13:20;;;;;;;14.57;8.77;;;;;;;11.25;66.99;97915.41;5090551;28;20024;-48
2023/04/21 03:15:46;;;;;;;11.27;9.45;;;;;;;11.16;66.60;97924.63;5107564;28;20024;-48
2023/04/21 03:18:12;;;;;;;12.23;9.57;;;;;;;10.93;67.25;97933.22;5107480;28;20477;-48
2023/04/21 03:20:37;;;;;;;13.13;9.27;;;;;;;10.73;67.56;97930.81;5090622;28;20028;-48
2023/04/21 03:23:03;;;;;;;11.07;9.15;;;;;;;10.58;68.20;97928.56;5107458;28;20043;-48
2023/04/21 03:25:29;;;;;;;11.25;8.57;;;;;;;10.47;68.59;97927.47;5090634;28;20032;-48
2023/04/21 03:27:55;;;;;;;11.40;9.10;;;;;;;10.40;68.73;97937.22;5107376;28;20071;-48
2023/04/21 03:30:21;;;;;;;10.23;9.10;;;;;;;10.35;69.05;97937.88;5107393;28;20258;-48
2023/04/21 03:32:47;;;;;;;12.68;9.50;;;;;;;10.30;69.36;97950.03;5090327;28;20131;-48
2023/04/21 03:35:13;;;;;;;12.55;9.73;;;;;;;10.26;69.63;97944.41;5107634;28;20119;-48
2023/04/21 03:37:39;;;;;;;14.60;10.60;;;;;;;10.22;69.62;97939.78;5091695;28;20401;-48
2023/04/21 03:40:06;;;;;;;10.98;9.60;;;;;;;10.23;69.94;97933.53;5073592;28;20028;-48
2023/04/21 03:42:31;;;;;;;10.65;9.00;;;;;;;10.23;70.15;97936.94;5107316;28;20054;-48
2023/04/21 03:45:09;;;;;;;13.27;10.25;;;;;;;10.26;70.50;97944.41;5107187;28;20406;-48
2023/04/21 03:47:35;;;;;;;13.30;9.65;;;;;;;10.20;70.30;97929.50;5091621;28;20569;-48
2023/04/21 03:50:04;;;;;;;19.38;10.52;;;;;;;10.27;70.56;97929.47;5107219;28;20028;-48
2023/04/21 03:52:30;;;;;;;10.82;9.73;;;;;;;10.44;70.08;97925.25;5090327;28;20406;-48
2023/04/21 03:54:56;;;;;;;11.65;9.57;;;;;;;10.55;69.80;97929.00;5107132;28;20024;-49
2023/04/21 03:57:21;;;;;;;13.57;10.10;;;;;;;10.68;70.66;97934.09;5107244;28;20028;-48
2023/04/21 03:59:47;;;;;;;14.57;9.57;;;;;;;10.79;70.86;97927.31;5091586;28;20054;-48
2023/04/21 04:02:13;;;;;;;10.35;9.32;;;;;;;10.85;70.10;97928.25;5107067;28;20552;-48
2023/04/21 04:04:38;;;;;;;14.43;9.35;;;;;;;10.88;69.56;97915.47;5092905;28;20065;-48
2023/04/21 04:07:06;;;;;;;11.52;9.60;;;;;;;10.91;69.39;97924.75;5110836;28;20036;-48
2023/04/21 04:09:32;;;;;;;32.67;11.73;;;;;;;10.97;69.03;97929.91;5095116;28;20020;-48
2023/04/21 04:11:57;;;;;;;51.30;32.88;;;;;;;10.95;68.42;97918.03;5095076;28;20027;-48
2023/04/21 04:14:23;;;;;;;19.65;12.60;;;;;;;10.76;68.72;97912.78;5095124;28;20028;-48
2023/04/21 04:16:49;;;;;;;26.20;20.98;;;;;;;10.50;69.64;97919.16;5094981;28;20528;-48
2023/04/21 04:19:15;;;;;;;18.85;14.43;;;;;;;10.34;69.95;97923.16;5093721;28;20032;-48
2023/04/21 04:21:40;;;;;;;25.02;11.32;;;;;;;10.23;70.47;97928.28;5094879;28;20104;-48
2023/04/21 04:24:07;;;;;;;23.63;11.02;;;;;;;10.20;70.69;97927.72;5095005;28;20028;-48
2023/04/21 04:26:33;;;;;;;17.88;10.90;;;;;;;10.19;71.11;97933.16;5094832;28;20086;-48
2023/04/21 04:29:01;;;;;;;21.50;11.32;;;;;;;10.13;70.81;97926.94;5093512;28;20032;-47
2023/04/21 04:31:29;;;;;;;31.55;12.60;;;;;;;10.05;71.26;97929.84;5094700;28;20032;-48
2023/04/21 04:33:55;;;;;;;23.73;10.10;;;;;;;10.08;71.61;97936.47;5093138;28;20131;-48
2023/04/21 04:36:21;;;;;;;15.50;9.93;;;;;;;10.05;71.71;97935.09;5094588;28;20020;-48
2023/04/21 04:38:47;;;;;;;24.60;10.20;;;;;;;10.11;72.25;97936.06;5110352;28;20032;-48
2023/04/21 04:41:14;;;;;;;29.60;14.93;;;;;;;10.18;72.03;97937.59;5094532;28;20067;-48
2023/04/21 04:43:40;;;;;;;18.75;10.70;;;;;;;10.18;71.48;97942.03;5094495;28;20055;-48
2023/04/21 04:46:07;;;;;;;20.80;11.43;;;;;;;10.12;71.76;97941.09;5094420;28;20158;-48
2023/04/21 04:48:33;;;;;;;26.60;12.73;;;;;;;10.03;71.49;97936.34;5094463;28;20028;-48
2023/04/21 04:50:59;;;;;;;15.70;9.80;;;;;;;9.98;71.94;97945.66;5093009;28;20042;-48
2023/04/21 04:53:27;;;;;;;16.65;10.55;;;;;;;9.99;72.50;97928.88;5110085;28;20028;-48
2023/04/21 04:55:52;;;;;;;23.30;10.27;;;;;;;10.04;72.11;97933.50;5094227;28;20035;-48
2023/04/21 04:58:18;;;;;;;12.88;10.07;;;;;;;10.07;72.10;97924.41;5092960;28;20443;-48
2023/04/21 05:00:45;;;;;;;16.55;10.27;;;;;;;10.16;72.17;97923.91;5092850;28;20039;-48
2023/04/21 05:03:11;;;;;;;25.85;10.65;;;;;;;10.21;72.01;97923.25;5092775;28;20089;-48
2023/04/21 05:05:37;;;;;;;17.02;9.57;;;;;;;10.31;71.75;97928.84;5092710;28;20462;-48
2023/04/21 05:08:02;;;;;;;25.92;10.30;;;;;;;10.52;72.01;97939.91;5109773;28;20580;-48
2023/04/21 05:10:28;;;;;;;15.43;9.73;;;;;;;10.79;71.18;97932.56;5092701;28;20035;-48
2023/04/21 05:12:54;;;;;;;45.08;11.35;;;;;;;10.94;70.49;97945.31;5109645;28;20035;-48
2023/04/21 05:15:21;;;;;;;18.30;9.40;;;;;;;11.12;69.26;97942.63;5093220;28;20041;-48
2023/04/21 05:17:47;;;;;;;67.65;11.88;;;;;;;11.23;68.95;97943.72;5109377;28;20149;-48
2023/04/21 05:20:13;;;;;;;177.85;17.02;;;;;;;11.27;68.35;97942.25;5092560;28;20027;-48
2023/04/21 05:22:39;;;;;;;162.02;17.77;;;;;;;11.33;68.67;97943.19;5092530;28;20591;-48
2023/04/21 05:25:05;;;;;;;150.23;15.52;;;;;;;11.44;68.22;97945.03;5093628;28;20039;-48
2023/04/21 05:27:32;;;;;;;285.08;25.92;;;;;;;11.50;68.61;97953.88;5093660;28;20027;-48
2023/04/21 05:29:59;;;;;;;121.28;13.25;;;;;;;11.64;68.32;97950.00;5093571;28;20038;-48
2023/04/21 05:32:24;;;;;;;100.50;33.80;;;;;;;11.72;67.85;97960.19;5092066;28;20489;-48
2023/04/21 05:34:50;;;;;;;53.83;34.30;;;;;;;11.68;67.00;97951.16;5092164;28;20024;-48
2023/04/21 05:37:16;;;;;;;68.80;19.35;;;;;;;11.60;66.74;97951.50;5093466;28;20020;-48
2023/04/21 05:39:42;;;;;;;22.75;10.02;;;;;;;11.62;67.44;97941.56;5093504;28;20032;-48
2023/04/21 05:42:11;;;;;;;27.10;9.52;;;;;;;11.68;67.14;97937.22;5092043;28;20035;-48
2023/04/21 05:44:37;;;;;;;28.25;9.70;;;;;;;11.77;67.01;97941.94;5093301;28;20024;-48
2023/04/21 05:47:04;;;;;;;27.60;9.02;;;;;;;11.82;66.42;97957.03;5108926;28;20047;-48
2023/04/21 05:49:30;;;;;;;27.55;10.68;;;;;;;12.08;66.81;97955.03;5108928;28;20406;-48
2023/04/21 05:51:55;;;;;;;17.00;7.88;;;;;;;12.27;66.79;97947.81;5093222;28;20035;-48
2023/04/21 05:54:21;;;;;;;22.35;9.13;;;;;;;12.34;67.14;97940.63;5093170;28;20051;-48
2023/04/21 05:56:47;;;;;;;11.80;7.80;;;;;;;12.37;67.97;97937.53;5108817;28;20039;-48
2023/04/21 05:59:13;;;;;;;13.93;8.18;;;;;;;12.03;68.47;97934.66;5093044;28;20508;-48
2023/04/21 06:01:39;;;;;;;17.05;8.45;;;;;;;11.82;69.49;97943.09;5075162;28;20386;-48
2023/04/21 06:04:04;;;;;;;16.63;7.50;;;;;;;11.89;69.83;97944.63;5092883;28;20093;-48
2023/04/21 06:06:30;;;;;;;10.25;6.57;;;;;;;12.04;69.34;97933.66;5093141;28;20031;-48
2023/04/21 06:08:56;;;;;;;10.40;7.50;;;;;;;12.10;68.63;97929.31;5092874;28;20566;-48
2023/04/21 06:11:22;;;;;;;25.88;8.93;;;;;;;11.91;69.96;97933.84;5091515;28;20488;-47
2023/04/21 06:13:49;;;;;;;39.63;9.82;;;;;;;11.72;72.33;97933.13;5091497;28;20501;-48
2023/04/21 06:16:14;;;;;;;29.23;9.68;;;;;;;11.72;73.51;97938.38;5108307;28;20028;-48
2023/04/21 06:18:40;;;;;;;69.40;12.45;;;;;;;11.78;73.51;97930.38;5092725;28;20378;-48
2023/04/21 06:21:06;;;;;;;28.65;9.05;;;;;;;11.91;72.96;97926.78;5091332;28;20114;-48
2023/04/21 06:23:31;;;;;;;18.33;8.15;;;;;;;11.98;71.37;97926.66;5108267;28;20482;-48
2023/04/21 06:26:05;;;;;;;37.80;9.20;;;;;;;12.08;70.91;97934.00;5108110;28;20043;-48
2023/04/21 06:28:33;;;;;;;88.93;17.27;;;;;;;12.33;70.09;97946.91;5074143;28;20028;-48
2023/04/21 06:31:00;;;;;;;68.72;14.15;;;;;;;12.68;68.92;97949.50;5091144;28;20034;-48
2023/04/21 06:33:25;;;;;;;54.03;10.77;;;;;;;13.16;66.21;97955.47;5091728;28;20135;-48
2023/04/21 06:35:52;;;;;;;74.70;11.10;;;;;;;13.77;64.80;97966.31;5090243;28;20457;-48
2023/04/21 06:38:18;;;;;;;83.25;12.02;;;;;;;14.01;61.81;97966.16;5091590;28;20019;-48
2023/04/21 06:40:43;;;;;;;61.83;15.45;;;;;;;13.63;62.58;97970.28;5090144;28;20101;-48
2023/04/21 06:43:09;;;;;;;35.47;15.38;;;;;;;13.18;64.45;97962.09;5091508;28;20035;-48
2023/04/21 06:45:35;;;;;;;21.48;13.65;;;;;;;12.69;69.14;97956.34;5090201;28;20028;-47
2023/04/21 06:48:01;;;;;;;38.50;12.68;;;;;;;11.84;73.25;97954.97;5091368;28;20493;-47
2023/04/21 06:50:26;;;;;;;34.63;20.40;;;;;;;11.16;78.07;97943.00;5090026;28;20024;-46
2023/04/21 06:52:52;;;;;;;38.72;17.40;;;;;;;10.47;82.75;97966.03;5091369;28;20081;-46
2023/04/21 06:55:18;;;;;;;47.88;16.83;;;;;;;10.28;86.47;97965.97;5090093;28;20084;-46
2023/04/21 06:57:43;;;;;;;41.05;16.75;;;;;;;10.26;89.34;97960.13;5091273;28;20040;-47
2023/04/21 07:00:10;;;;;;;45.30;25.15;;;;;;;10.23;91.22;97960.56;5091283;28;20069;-47
2023/04/21 07:02:36;;;;;;;45.30;40.30;;;;;;;10.39;92.82;97960.03;5091140;28;20031;-48
2023/04/21 07:05:01;;;;;;;34.88;17.38;;;;;;;10.64;93.57;97961.78;5091367;28;20027;-47
2023/04/21 07:07:27;;;;;;;24.45;14.65;;;;;;;10.84;93.04;97958.94;5089926;28;20035;-47
2023/04/21 07:09:53;;;;;;;48.75;15.80;;;;;;;11.00;92.66;97954.91;5089813;28;20034;-48
2023/04/21 07:12:18;;;;;;;42.58;13.93;;;;;;;11.21;92.78;97969.41;5089796;28;20035;-48
2023/04/21 07:14:44;;;;;;;26.83;12.40;;;;;;;11.45;93.30;97964.22;5089786;28;20035;-48
2023/04/21 07:17:10;;;;;;;14.85;11.43;;;;;;;11.50;91.87;97965.16;5089769;28;20107;-48
2023/04/21 07:19:36;;;;;;;23.98;11.18;;;;;;;11.51;90.30;97969.41;5091058;28;20097;-48
2023/04/21 07:22:01;;;;;;;38.03;14.23;;;;;;;11.44;89.23;97973.94;5091495;28;20104;-48
2023/04/21 07:24:27;;;;;;;71.40;14.65;;;;;;;11.43;89.34;97963.66;5089548;28;20060;-48
2023/04/21 07:26:53;;;;;;;46.72;12.80;;;;;;;11.52;89.78;97975.47;5089570;28;20092;-48
2023/04/21 07:29:18;;;;;;;60.13;12.52;;;;;;;11.65;90.60;97977.91;5090939;28;20028;-48
2023/04/21 07:31:47;;;;;;;26.37;12.00;;;;;;;11.90;91.00;97974.34;5037660;28;1508125;-49
2023/04/21 07:34:13;;;;;;;29.23;11.90;;;;;;;12.11;90.71;97970.34;5091734;28;20036;-48
2023/04/21 07:36:38;;;;;;;25.52;11.40;;;;;;;12.33;90.92;97970.59;5091713;28;20525;-48
2023/04/21 07:39:05;;;;;;;25.33;20.27;;;;;;;12.39;89.34;97962.59;5074241;28;20059;-48
2023/04/21 07:41:31;;;;;;;20.23;16.98;;;;;;;12.46;88.52;97970.38;5094344;28;20028;-48
2023/04/21 07:43:56;;;;;;;34.83;11.70;;;;;;;12.90;89.82;97968.13;5095661;28;20107;-48
2023/04/21 07:46:28;;;;;;;59.95;15.20;;;;;;;13.46;87.92;97959.69;5095579;28;20177;-48
2023/04/21 07:48:58;;;;;;;24.33;9.45;;;;;;;13.87;86.75;97953.28;5094288;28;20052;-48
2023/04/21 07:51:24;;;;;;;18.42;9.48;;;;;;;14.56;86.55;97958.28;5061368;28;20615;-48
2023/04/21 07:53:50;;;;;;;20.92;8.45;;;;;;;15.63;84.89;97957.06;5095544;28;20400;-48
2023/04/21 07:56:16;;;;;;;16.23;8.70;;;;;;;16.87;79.04;97955.03;5095374;28;20032;-46
2023/04/21 07:58:41;;;;;;;14.57;10.02;;;;;;;17.76;71.80;97947.78;5077239;28;20032;-46
2023/04/21 08:01:07;;;;;;;15.88;8.00;;;;;;;18.35;69.45;97945.66;5094279;28;20051;-46
2023/04/21 08:03:33;;;;;;;12.25;7.30;;;;;;;19.41;68.66;97958.03;5110969;28;20059;-46
2023/04/21 08:05:58;;;;;;;10.85;7.85;;;;;;;19.40;64.93;97941.28;5095171;28;20069;-46
2023/04/21 08:08:24;;;;;;;16.38;7.32;;;;;;;18.86;66.23;97937.56;5095177;28;20024;-46
2023/04/21 08:10:50;;;;;;;12.10;7.20;;;;;;;18.60;64.30;97938.69;5093812;28;20104;-46
2023/04/21 08:13:15;;;;;;;15.38;5.82;;;;;;;18.94;63.00;97933.53;5110799;28;20038;-46
2023/04/21 08:15:41;;;;;;;8.95;5.80;;;;;;;18.97;64.30;97932.97;5094949;28;20016;-46
2023/04/21 08:18:08;;;;;;;8.52;5.43;;;;;;;19.13;61.33;97937.16;5095037;28;20031;-46
2023/04/21 08:20:33;;;;;;;7.93;5.10;;;;;;;19.82;59.71;97944.44;5094885;28;20099;-46
2023/04/21 08:22:59;;;;;;;27.45;6.63;;;;;;;20.46;57.05;97947.84;5094906;28;20112;-46
2023/04/21 08:25:25;;;;;;;10.73;5.72;;;;;;;20.94;58.02;97945.97;5094721;28;20050;-46
2023/04/21 08:27:51;;;;;;;12.40;4.72;;;;;;;21.30;56.56;97944.72;5110505;28;20039;-44
2023/04/21 08:30:16;;;;;;;15.65;5.63;;;;;;;20.72;57.45;97948.41;5076605;28;20028;-44
2023/04/21 08:32:43;;;;;;;20.58;6.13;;;;;;;20.73;61.06;97952.66;5110244;28;20048;-44
2023/04/21 08:35:09;;;;;;;27.27;5.97;;;;;;;21.28;56.72;97942.34;5093443;28;20076;-44
2023/04/21 08:37:38;;;;;;;16.10;5.05;;;;;;;21.74;58.12;97947.03;5110273;28;20039;-44
2023/04/21 08:40:06;;;;;;;45.17;7.25;;;;;;;22.24;56.90;97933.13;5094604;28;20509;-44
2023/04/21 08:42:32;;;;;;;35.33;7.13;;;;;;;23.63;55.43;97946.38;5093200;28;20122;-44
2023/04/21 08:44:58;;;;;;;5.90;4.40;;;;;;;24.48;50.14;97936.44;5094395;28;20028;-44
2023/04/21 08:47:25;;;;;;;28.65;5.72;;;;;;;24.49;49.91;97939.94;5110161;28;20035;-44
2023/04/21 08:49:51;;;;;;;14.75;4.85;;;;;;;24.59;44.76;97949.59;5076106;28;20028;-44
2023/04/21 08:52:17;;;;;;;14.98;4.97;;;;;;;24.51;42.93;97943.91;5110157;28;20158;-44
2023/04/21 08:54:43;;;;;;;25.13;5.40;;;;;;;25.11;42.53;97947.03;5110086;28;20035;-44
2023/04/21 08:57:08;;;;;;;15.63;4.90;;;;;;;25.80;41.05;97945.53;5109960;28;20028;-45
2023/04/21 08:59:34;;;;;;;8.88;4.57;;;;;;;25.82;41.09;97943.31;5109869;28;20040;-45
2023/04/21 09:02:17;;;;;;;16.02;5.68;;;;;;;25.10;41.21;97934.75;5094295;28;20046;-45
2023/04/21 09:04:48;;;;;;;9.52;4.78;;;;;;;24.27;42.23;97949.63;5094005;28;20032;-45
2023/04/21 09:07:38;;;;;;;8.30;3.70;;;;;;;24.72;42.85;97941.44;5109703;28;20059;-45
2023/04/21 09:10:04;;;;;;;19.85;4.43;;;;;;;26.48;39.16;97930.31;5109715;28;20032;-45
2023/04/21 09:12:30;;;;;;;10.82;4.03;;;;;;;27.85;36.40;97941.59;5109643;28;20024;-45
2023/04/21 09:14:57;;;;;;;17.33;3.22;;;;;;;28.87;31.91;97939.13;5092601;28;20027;-45
2023/04/21 09:17:32;;;;;;;9.13;2.53;;;;;;;29.57;30.82;97924.56;5092517;28;20375;-45
2023/04/21 09:20:30;;;;;;;5.63;2.50;;;;;;;29.84;30.71;97938.44;5093928;28;20024;-46
2023/04/21 09:22:55;;;;;;;25.55;5.07;;;;;;;29.24;30.27;97938.34;5081436;28;20508;-46
2023/04/21 09:25:22;;;;;;;5.63;2.80;;;;;;;29.02;29.49;97936.88;5109321;28;20110;-46
2023/04/21 09:27:47;;;;;;;18.58;3.38;;;;;;;29.02;28.20;97943.06;5109601;28;20031;-45
2023/04/21 09:30:18;;;;;;;16.13;3.00;;;;;;;28.44;28.95;97939.69;5109320;28;20039;-46
2023/04/21 09:32:43;;;;;;;7.80;2.45;;;;;;;27.33;29.00;97954.75;5092099;28;20054;-45
2023/04/21 09:35:10;;;;;;;6.05;2.05;;;;;;;26.64;30.67;97949.44;5109250;28;20036;-45
2023/04/21 09:37:37;;;;;;;8.77;2.05;;;;;;;26.50;31.06;97949.63;5093437;28;20031;-45
2023/04/21 09:40:03;;;;;;;10.82;2.20;;;;;;;25.80;30.78;97965.13;5092163;28;20039;-45
2023/04/21 09:42:31;;;;;;;5.95;1.90;;;;;;;25.08;31.50;97961.91;5109088;28;20047;-46
2023/04/21 09:44:56;;;;;;;5.60;2.08;;;;;;;24.74;33.14;97956.47;5093270;28;20036;-46
2023/04/21 09:47:22;;;;;;;6.32;1.95;;;;;;;24.41;32.67;97952.22;5093296;28;20031;-45
2023/04/21 09:49:51;;;;;;;10.98;2.13;;;;;;;23.99;33.35;97973.13;5093265;28;20031;-45
2023/04/21 09:52:20;;;;;;;11.25;2.50;;;;;;;23.58;32.88;97959.84;5093168;28;20559;-45
2023/04/21 09:54:59;;;;;;;6.13;2.30;;;;;;;23.22;33.81;97966.00;5108847;28;20025;-45
2023/04/21 09:57:28;;;;;;;5.10;1.73;;;;;;;23.22;33.86;97968.69;5108886;28;20023;-45
2023/04/21 10:00:02;;;;;;;9.85;2.80;;;;;;;22.94;33.36;97963.38;5093128;28;20545;-45
2023/04/21 10:02:30;;;;;;;10.18;2.50;;;;;;;22.98;33.98;97960.88;5092433;28;20024;-45
2023/04/21 10:04:57;;;;;;;5.53;1.73;;;;;;;23.12;34.09;97967.03;5092772;28;20526;-45
2023/04/21 10:07:23;;;;;;;6.78;1.88;;;;;;;23.24;34.43;97964.63;5108626;28;20038;-45
2023/04/21 10:09:53;;;;;;;10.55;2.70;;;;;;;24.27;33.46;97968.38;5092859;28;20107;-45
2023/04/21 10:12:20;;;;;;;2.10;1.40;;;;;;;25.15;32.24;97964.13;5092896;28;20031;-45
2023/04/21 10:14:53;;;;;;;7.18;2.15;;;;;;;26.57;30.00;97945.63;5108737;28;20454;-45
2023/04/21 10:17:23;;;;;;;6.53;1.60;;;;;;;26.81;28.43;97955.84;5092732;28;20494;-46
2023/04/21 10:19:56;;;;;;;8.27;2.00;;;;;;;26.68;29.99;97946.84;5093043;28;20103;-46
2023/04/21 10:22:32;;;;;;;10.43;2.03;;;;;;;27.36;29.20;97951.38;5092894;28;20039;-46
2023/04/21 10:25:00;;;;;;;4.32;1.70;;;;;;;28.05;27.99;97948.09;5092524;28;20078;-46
2023/04/21 10:27:39;;;;;;;12.55;1.85;;;;;;;27.62;27.77;97949.25;5108174;28;20024;-46
2023/04/21 10:30:18;;;;;;;9.23;1.90;;;;;;;26.38;28.39;97952.19;5092781;28;20050;-46
2023/04/21 10:32:45;;;;;;;8.00;2.25;;;;;;;25.22;30.15;97953.75;5107945;28;20052;-46
2023/04/21 10:35:20;;;;;;;6.03;1.98;;;;;;;24.27;30.81;97954.97;5092344;28;20035;-45
2023/04/21 10:37:48;;;;;;;4.13;1.73;;;;;;;23.23;31.91;97959.56;5092399;28;20028;-45
2023/04/21 10:40:29;;;;;;;15.88;2.35;;;;;;;22.67;33.13;97956.13;5092233;28;20063;-45
2023/04/21 10:42:55;;;;;;;3.75;1.33;;;;;;;22.58;32.30;97950.69;5107983;28;20093;-45
2023/04/21 10:45:24;;;;;;;5.05;1.40;;;;;;;22.69;32.76;97935.22;5092303;28;20476;-45
2023/04/21 10:47:52;;;;;;;4.25;1.35;;;;;;;23.82;32.04;97933.59;5092262;28;20089;-46
2023/04/21 10:50:28;;;;;;;32.75;2.58;;;;;;;24.33;29.21;97934.19;5107882;28;20035;-46
2023/04/21 10:53:10;;;;;;;4.20;1.67;;;;;;;23.64;29.61;97935.34;5092158;28;20035;-46
2023/04/21 10:55:37;;;;;;;4.97;1.45;;;;;;;23.08;30.18;97931.22;5107806;28;20028;-45
2023/04/21 10:58:07;;;;;;;15.65;1.80;;;;;;;22.64;31.94;97936.13;5107782;28;20097;-45
2023/04/21 11:00:36;;;;;;;18.27;1.98;;;;;;;22.69;33.10;97940.56;5090757;28;20023;-45
2023/04/21 11:03:04;;;;;;;7.53;1.50;;;;;;;23.10;32.01;97931.72;5090699;28;20032;-46
2023/04/21 11:05:39;;;;;;;5.72;1.70;;;;;;;22.94;31.54;97926.69;5091806;28;20111;-45
2023/04/21 11:08:15;;;;;;;4.82;1.05;;;;;;;22.53;32.46;97934.72;5092005;28;20028;-45
2023/04/21 11:10:55;;;;;;;10.35;1.73;;;;;;;22.51;32.21;97918.97;5091984;28;20031;-45
2023/04/21 11:13:22;;;;;;;13.95;1.75;;;;;;;22.59;31.97;97922.06;5107023;28;20024;-46
2023/04/21 11:16:05;;;;;;;32.88;2.90;;;;;;;22.21;31.36;97903.50;5107248;28;20055;-45
2023/04/21 11:18:42;;;;;;;12.75;1.88;;;;;;;21.76;32.20;97927.25;5091953;28;20577;-45
2023/04/21 11:21:10;;;;;;;5.18;1.40;;;;;;;21.42;32.82;97942.41;5091933;28;20028;-45